| time (UTC) | temp F | wind direction | speed knots | gust knots | rain 1hr in | rain 24hr in | rain mn in | humidity % | barometer mb |
| 20260502200004 | 68 | 7 | 2.6 | 4.3 | 0.00 | 0.00 | 0.00 | 18 | 1018.8 |
| 20260502195502 | 68 | 307 | 6.1 | 8.7 | 0.00 | 0.00 | 0.00 | 20 | 1018.8 |
| 20260502194957 | 68 | 223 | 0.9 | 3.5 | 0.00 | 0.00 | 0.00 | 22 | 1018.6 |
| 20260502194455 | 68 | 305 | 8.7 | 9.6 | 0.00 | 0.00 | 0.00 | 17 | 1018.9 |
| 20260502193950 | 68 | 312 | 1.7 | 5.2 | 0.00 | 0.00 | 0.00 | 18 | 1018.8 |
| 20260502193448 | 68 | 316 | 8.7 | 10.4 | 0.00 | 0.00 | 0.00 | 19 | 1019.0 |
| 20260502192943 | 67 | 59 | 1.7 | 3.5 | 0.00 | 0.00 | 0.00 | 15 | 1019.0 |
| 20260502192440 | 67 | 325 | 5.2 | 9.6 | 0.00 | 0.00 | 0.00 | 17 | 1019.1 |
| 20260502191937 | 67 | 6 | 2.6 | 6.1 | 0.00 | 0.00 | 0.00 | 22 | 1019.0 |
| 20260502191435 | 68 | 14 | 8.7 | 8.7 | 0.00 | 0.00 | 0.00 | 20 | 1019.2 |
| 20260502190932 | 67 | 8 | 7.8 | 8.7 | 0.00 | 0.00 | 0.00 | 16 | 1019.1 |
| 20260502190429 | 68 | 83 | 0.0 | 2.6 | 0.00 | 0.00 | 0.00 | 21 | 1019.4 |
| 20260502185926 | 67 | 336 | 1.7 | 6.1 | 0.00 | 0.00 | 0.00 | 20 | 1019.2 |
| 20260502185421 | 67 | 316 | 5.2 | 7.8 | 0.00 | 0.00 | 0.00 | 19 | 1019.4 |
| 20260502184919 | 67 | 46 | 1.7 | 5.2 | 0.00 | 0.00 | 0.00 | 19 | 1019.6 |
| 20260502184414 | 66 | 49 | 3.5 | 7.8 | 0.00 | 0.00 | 0.00 | 18 | 1019.9 |
| 20260502183911 | 67 | 346 | 1.7 | 7.8 | 0.00 | 0.00 | 0.00 | 18 | 1019.8 |
| 20260502183407 | 66 | 17 | 2.6 | 5.2 | 0.00 | 0.00 | 0.00 | 18 | 1019.7 |
| 20260502182902 | 66 | 322 | 4.3 | 6.1 | 0.00 | 0.00 | 0.00 | 23 | 1019.7 |
| 20260502182358 | 66 | 346 | 1.7 | 6.1 | 0.00 | 0.00 | 0.00 | 20 | 1019.9 |
| 20260502181854 | 65 | 323 | 3.5 | 7.0 | 0.00 | 0.00 | 0.00 | 20 | 1019.8 |
| 20260502181353 | 65 | 358 | 3.5 | 7.0 | 0.00 | 0.00 | 0.00 | 19 | 1020.2 |
| 20260502180851 | 65 | 300 | 1.7 | 7.8 | 0.00 | 0.00 | 0.00 | 25 | 1019.9 |
| 20260502180348 | 66 | 347 | 3.5 | 7.8 | 0.00 | 0.00 | 0.00 | 26 | 1020.0 |
| 20260502170306 | 60 | 359 | 2.6 | 7.0 | 0.00 | 0.00 | 0.00 | 29 | 1020.7 |
| 20260502164254 | 59 | 16 | 5.2 | 7.0 | 0.00 | 0.00 | 0.00 | 26 | 1020.5 |
| 20260502163749 | 59 | 355 | 1.7 | 5.2 | 0.00 | 0.00 | 0.00 | 29 | 1020.7 |
| 20260502163246 | 58 | 15 | 1.7 | 5.2 | 0.00 | 0.00 | 0.00 | 27 | 1020.8 |
| 20260502162743 | 57 | 12 | 2.6 | 3.5 | 0.00 | 0.00 | 0.00 | 23 | 1020.8 |
| 20260502162240 | 57 | 343 | 2.6 | 3.5 | 0.00 | 0.00 | 0.00 | 25 | 1021.0 |
| 20260502161737 | 57 | 51 | 2.6 | 5.2 | 0.00 | 0.00 | 0.00 | 28 | 1020.8 |
| 20260502161233 | 56 | 0 | 2.6 | 5.2 | 0.00 | 0.00 | 0.00 | 30 | 1020.8 |
| 20260502160732 | 56 | 331 | 1.7 | 3.5 | 0.00 | 0.00 | 0.00 | 31 | 1020.8 |
| 20260502160230 | 56 | 25 | 4.3 | 4.3 | 0.00 | 0.00 | 0.00 | 29 | 1021.2 |
| 20260502152154 | 53 | 29 | 1.7 | 3.5 | 0.00 | 0.00 | 0.00 | 31 | 1021.5 |
| 20260502151652 | 52 | 339 | 2.6 | 3.5 | 0.00 | 0.00 | 0.00 | 34 | 1021.2 |
| 20260502151149 | 52 | 332 | 2.6 | 5.2 | 0.00 | 0.00 | 0.00 | 32 | 1021.4 |
| 20260502150646 | 53 | 358 | 1.7 | 3.5 | 0.00 | 0.00 | 0.00 | 30 | 1021.3 |
| 20260502150142 | 55 | 358 | 1.7 | 2.6 | 0.00 | 0.00 | 0.00 | 27 | 1021.5 |
| 20260502140106 | 45 | 119 | 1.7 | 6.1 | 0.00 | 0.00 | 0.00 | 48 | 1021.4 |
| 20260502130531 | 35 | 116 | 1.7 | 1.7 | 0.00 | 0.00 | 0.00 | 61 | 1021.3 |
| 20260502123515 | 31 | 60 | 2.6 | 2.6 | 0.00 | 0.00 | 0.00 | 68 | 1021.2 |
| 20260502123011 | 32 | 89 | 1.7 | 2.6 | 0.00 | 0.00 | 0.00 | 67 | 1021.1 |
| 20260502122507 | 31 | 138 | 0.9 | 2.6 | 0.00 | 0.00 | 0.00 | 67 | 1021.0 |
| 20260502122005 | 31 | 98 | 1.7 | 2.6 | 0.00 | 0.00 | 0.00 | 67 | 1020.8 |
| 20260502121502 | 32 | 110 | 1.7 | 2.6 | 0.00 | 0.00 | 0.00 | 66 | 1020.8 |
| 20260502121000 | 32 | 106 | 2.6 | 3.5 | 0.00 | 0.00 | 0.00 | 65 | 1020.8 |
| 20260502120456 | 32 | 126 | 1.7 | 3.5 | 0.00 | 0.00 | 0.00 | 65 | 1020.8 |
| 20260502115450 | 33 | 102 | 1.7 | 3.5 | 0.00 | 0.00 | 0.00 | 62 | 1021.1 |
| 20260502114946 | 33 | 121 | 2.6 | 3.5 | 0.00 | 0.00 | 0.00 | 63 | 1020.8 |
| 20260502114443 | 32 | 130 | 1.7 | 2.6 | 0.00 | 0.00 | 0.00 | 63 | 1020.6 |
| 20260502113940 | 33 | 116 | 1.7 | 3.5 | 0.00 | 0.00 | 0.00 | 63 | 1020.8 |
| 20260502113438 | 33 | 113 | 2.6 | 3.5 | 0.00 | 0.00 | 0.00 | 63 | 1021.0 |
| 20260502112936 | 32 | 119 | 3.5 | 3.5 | 0.00 | 0.00 | 0.00 | 66 | 1020.7 |
| 20260502112433 | 32 | 103 | 1.7 | 2.6 | 0.00 | 0.00 | 0.00 | 67 | 1020.8 |
| 20260502111931 | 32 | 114 | 1.7 | 2.6 | 0.00 | 0.00 | 0.00 | 66 | 1020.8 |
| 20260502111428 | 33 | 111 | 1.7 | 3.5 | 0.00 | 0.00 | 0.00 | 64 | 1020.8 |
| 20260502110925 | 33 | 121 | 2.6 | 3.5 | 0.00 | 0.00 | 0.00 | 62 | 1020.6 |
| 20260502110423 | 33 | 105 | 1.7 | 1.7 | 0.00 | 0.00 | 0.00 | 61 | 1020.7 |
| 20260502105920 | 33 | 92 | 3.5 | 3.5 | 0.00 | 0.00 | 0.00 | 63 | 1020.5 |
| 20260502105417 | 33 | 78 | 2.6 | 4.3 | 0.00 | 0.00 | 0.00 | 62 | 1020.7 |
| 20260502104915 | 33 | 135 | 1.7 | 2.6 | 0.00 | 0.00 | 0.00 | 61 | 1020.7 |
| 20260502104412 | 33 | 129 | 0.9 | 1.7 | 0.00 | 0.00 | 0.00 | 61 | 1020.6 |
| 20260502103909 | 33 | 84 | 1.7 | 3.5 | 0.00 | 0.00 | 0.00 | 60 | 1020.7 |
| 20260502103407 | 34 | 113 | 1.7 | 3.5 | 0.00 | 0.00 | 0.00 | 58 | 1020.7 |
| 20260502102904 | 35 | 133 | 1.7 | 2.6 | 0.00 | 0.00 | 0.00 | 57 | 1020.6 |
| 20260502102400 | 35 | 120 | 1.7 | 2.6 | 0.00 | 0.00 | 0.00 | 57 | 1020.8 |
| 20260502101858 | 35 | 120 | 1.7 | 2.6 | 0.00 | 0.00 | 0.00 | 56 | 1020.5 |
| 20260502101356 | 36 | 103 | 2.6 | 4.3 | 0.00 | 0.00 | 0.00 | 55 | 1020.6 |
| 20260502100854 | 35 | 110 | 2.6 | 3.5 | 0.00 | 0.00 | 0.00 | 56 | 1020.4 |
| 20260502100353 | 35 | 104 | 1.7 | 3.5 | 0.00 | 0.00 | 0.00 | 56 | 1020.5 |
| 20260502091327 | 37 | 154 | 2.6 | 4.3 | 0.00 | 0.00 | 0.00 | 51 | 1020.4 |
| 20260502090824 | 38 | 112 | 3.5 | 5.2 | 0.00 | 0.00 | 0.00 | 52 | 1020.3 |
| 20260502090321 | 37 | 144 | 2.6 | 4.3 | 0.00 | 0.00 | 0.00 | 53 | 1020.3 |
| 20260502071216 | 35 | 138 | 1.7 | 2.6 | 0.00 | 0.00 | 0.00 | 56 | 1020.0 |
| 20260502070714 | 35 | 111 | 0.9 | 2.6 | 0.00 | 0.00 | 0.00 | 57 | 1019.9 |
| 20260502070212 | 36 | 103 | 1.7 | 2.6 | 0.00 | 0.00 | 0.00 | 55 | 1019.8 |
| 20260502065710 | 37 | 129 | 2.6 | 3.5 | 0.00 | 0.00 | 0.00 | 53 | 1019.7 |
| 20260502065207 | 38 | 110 | 1.7 | 3.5 | 0.00 | 0.00 | 0.00 | 51 | 1019.9 |
| 20260502064706 | 38 | 123 | 2.6 | 4.3 | 0.00 | 0.00 | 0.00 | 49 | 1019.9 |
| 20260502064202 | 38 | 99 | 2.6 | 3.5 | 0.00 | 0.00 | 0.00 | 48 | 1020.0 |
| 20260502063700 | 39 | 105 | 2.6 | 3.5 | 0.00 | 0.00 | 0.00 | 47 | 1019.9 |
| 20260502063158 | 39 | 137 | 2.6 | 3.5 | 0.00 | 0.00 | 0.00 | 46 | 1020.0 |
| 20260502062655 | 39 | 114 | 3.5 | 4.3 | 0.00 | 0.00 | 0.00 | 46 | 1019.8 |
| 20260502062152 | 39 | 112 | 2.6 | 4.3 | 0.00 | 0.00 | 0.00 | 46 | 1019.6 |
| 20260502061651 | 39 | 119 | 3.5 | 4.3 | 0.00 | 0.00 | 0.00 | 46 | 1019.7 |
| 20260502061148 | 39 | 120 | 2.6 | 3.5 | 0.00 | 0.00 | 0.00 | 47 | 1019.7 |
| 20260502060648 | 39 | 113 | 2.6 | 3.5 | 0.00 | 0.00 | 0.00 | 45 | 1019.8 |
| 20260502060145 | 40 | 127 | 3.5 | 3.5 | 0.00 | 0.00 | 0.00 | 44 | 1019.7 |
| 20260502055643 | 41 | 149 | 2.6 | 3.5 | 0.00 | 0.00 | 0.00 | 43 | 1019.8 |
| 20260502055140 | 40 | 124 | 1.7 | 2.6 | 0.00 | 0.00 | 0.00 | 42 | 1019.8 |
| 20260502054639 | 41 | 96 | 1.7 | 2.6 | 0.00 | 0.00 | 0.00 | 44 | 1019.8 |
| 20260502054136 | 40 | 116 | 1.7 | 3.5 | 0.00 | 0.00 | 0.00 | 43 | 1019.8 |
| 20260502053634 | 41 | 93 | 1.7 | 2.6 | 0.00 | 0.00 | 0.00 | 45 | 1019.7 |
| 20260502053131 | 42 | 91 | 1.7 | 2.6 | 0.00 | 0.00 | 0.00 | 44 | 1019.8 |
| 20260502052629 | 42 | 110 | 2.6 | 3.5 | 0.00 | 0.00 | 0.00 | 40 | 1019.9 |
| 20260502052127 | 43 | 108 | 2.6 | 3.5 | 0.00 | 0.00 | 0.00 | 39 | 1019.6 |
| 20260502051625 | 42 | 111 | 3.5 | 4.3 | 0.00 | 0.00 | 0.00 | 41 | 1019.8 |
| 20260502051123 | 43 | 94 | 4.3 | 5.2 | 0.00 | 0.00 | 0.00 | 39 | 1019.8 |
| 20260502050618 | 43 | 98 | 1.7 | 3.5 | 0.00 | 0.00 | 0.00 | 38 | 1019.7 |
| 20260502050115 | 43 | 108 | 3.5 | 5.2 | 0.00 | 0.00 | 0.00 | 38 | 1019.6 |
| 20260502045611 | 43 | 103 | 3.5 | 5.2 | 0.00 | 0.00 | 0.00 | 38 | 1019.7 |
| 20260502045109 | 44 | 131 | 1.7 | 4.3 | 0.00 | 0.00 | 0.00 | 38 | 1019.6 |
| 20260502044605 | 44 | 129 | 1.7 | 4.3 | 0.00 | 0.00 | 0.00 | 37 | 1019.7 |
| 20260502044102 | 45 | 123 | 4.3 | 4.3 | 0.00 | 0.00 | 0.00 | 36 | 1019.8 |
| 20260502043600 | 45 | 95 | 0.9 | 3.5 | 0.00 | 0.00 | 0.00 | 36 | 1019.8 |
| 20260502043057 | 45 | 119 | 0.9 | 3.5 | 0.00 | 0.00 | 0.00 | 36 | 1019.8 |
| 20260502042556 | 46 | 130 | 1.7 | 3.5 | 0.00 | 0.00 | 0.00 | 35 | 1019.5 |
| 20260502042054 | 46 | 112 | 0.9 | 4.3 | 0.00 | 0.00 | 0.00 | 35 | 1019.6 |
| 20260502041552 | 46 | 137 | 1.7 | 4.3 | 0.00 | 0.00 | 0.00 | 33 | 1019.7 |
| 20260502041049 | 46 | 123 | 1.7 | 3.5 | 0.00 | 0.00 | 0.00 | 34 | 1019.8 |
| 20260502040545 | 46 | 118 | 2.6 | 4.3 | 0.00 | 0.00 | 0.00 | 35 | 1019.6 |
| 20260502040043 | 46 | 101 | 2.6 | 5.2 | 0.00 | 0.00 | 0.00 | 35 | 1019.7 |
| 20260502035538 | 46 | 103 | 2.6 | 3.5 | 0.00 | 0.00 | 0.00 | 34 | 1019.4 |
| 20260502035036 | 47 | 114 | 2.6 | 4.3 | 0.00 | 0.00 | 0.00 | 33 | 1019.5 |
| 20260502034534 | 47 | 139 | 2.6 | 4.3 | 0.00 | 0.00 | 0.00 | 33 | 1019.5 |
| 20260502034032 | 47 | 98 | 3.5 | 3.5 | 0.00 | 0.00 | 0.00 | 34 | 1019.6 |
| 20260502033530 | 48 | 110 | 2.6 | 4.3 | 0.00 | 0.00 | 0.00 | 33 | 1019.4 |
| 20260502033027 | 49 | 126 | 3.5 | 4.3 | 0.00 | 0.00 | 0.00 | 31 | 1019.5 |
| 20260502032522 | 50 | 125 | 2.6 | 3.5 | 0.00 | 0.00 | 0.00 | 30 | 1019.5 |
| 20260502032020 | 49 | 121 | 4.3 | 4.3 | 0.00 | 0.00 | 0.00 | 28 | 1019.4 |
| 20260502031518 | 48 | 140 | 3.5 | 5.2 | 0.00 | 0.00 | 0.00 | 31 | 1019.4 |
| 20260502031015 | 48 | 115 | 4.3 | 5.2 | 0.00 | 0.00 | 0.00 | 31 | 1019.2 |
| 20260502030514 | 48 | 103 | 3.5 | 4.3 | 0.00 | 0.00 | 0.00 | 32 | 1019.1 |
| 20260502030012 | 49 | 99 | 0.9 | 2.6 | 0.00 | 0.00 | 0.00 | 33 | 1019.1 |
| 20260502025509 | 50 | 118 | 3.5 | 5.2 | 0.00 | 0.00 | 0.00 | 31 | 1019.1 |
| 20260502025007 | 51 | 125 | 5.2 | 7.0 | 0.00 | 0.00 | 0.00 | 27 | 1018.9 |
| 20260502024504 | 51 | 95 | 5.2 | 6.1 | 0.00 | 0.00 | 0.00 | 29 | 1018.9 |
| 20260502024003 | 51 | 98 | 6.1 | 7.8 | 0.00 | 0.00 | 0.00 | 30 | 1018.9 |
| 20260502023459 | 52 | 83 | 4.3 | 6.1 | 0.00 | 0.00 | 0.00 | 29 | 1018.8 |
| 20260502022956 | 52 | 87 | 4.3 | 5.2 | 0.00 | 0.00 | 0.00 | 31 | 1018.8 |
| 20260502022453 | 55 | 104 | 4.3 | 5.2 | 0.00 | 0.00 | 0.00 | 30 | 1018.9 |
| 20260502021950 | 56 | 73 | 5.2 | 5.2 | 0.00 | 0.00 | 0.00 | 28 | 1018.8 |
| 20260502021448 | 58 | 66 | 3.5 | 5.2 | 0.00 | 0.00 | 0.00 | 23 | 1018.7 |
| 20260502020944 | 60 | 75 | 2.6 | 3.5 | 0.00 | 0.00 | 0.00 | 18 | 1019.0 |
| 20260502020443 | 60 | 79 | 2.6 | 3.5 | 0.00 | 0.00 | 0.00 | 16 | 1019.1 |
| 20260502015939 | 62 | 84 | 2.6 | 2.6 | 0.00 | 0.00 | 0.00 | 19 | 1018.9 |
| 20260502015437 | 63 | 98 | 2.6 | 4.3 | 0.00 | 0.00 | 0.00 | 13 | 1018.8 |
| 20260502014933 | 63 | 89 | 2.6 | 2.6 | 0.00 | 0.00 | 0.00 | 14 | 1019.0 |
| 20260502014430 | 63 | 84 | 1.7 | 2.6 | 0.00 | 0.00 | 0.00 | 13 | 1018.9 |
| 20260502013926 | 63 | 88 | 1.7 | 2.6 | 0.00 | 0.00 | 0.00 | 14 | 1018.9 |
| 20260502013421 | 64 | 75 | 2.6 | 3.5 | 0.00 | 0.00 | 0.00 | 17 | 1019.2 |
| 20260502012047 | 64 | 65 | 2.6 | 3.5 | 0.00 | 0.00 | 0.00 | 17 | 1019.4 |
| 20260502011543 | 64 | 65 | 2.6 | 3.5 | 0.00 | 0.00 | 0.00 | 17 | 1019.4 |
| 20260502011039 | 65 | 63 | 2.6 | 4.3 | 0.00 | 0.00 | 0.00 | 11 | 1019.2 |
| 20260502010537 | 65 | 52 | 2.6 | 4.3 | 0.00 | 0.00 | 0.00 | 10 | 1019.2 |
| 20260502010033 | 65 | 34 | 5.2 | 5.2 | 0.00 | 0.00 | 0.00 | 14 | 1019.1 |
| 20260502005531 | 65 | 50 | 6.1 | 6.1 | 0.00 | 0.00 | 0.00 | 12 | 1019.2 |
| 20260502005029 | 65 | 64 | 4.3 | 5.2 | 0.00 | 0.00 | 0.00 | 13 | 1019.4 |
| 20260502004524 | 65 | 68 | 4.3 | 4.3 | 0.00 | 0.00 | 0.00 | 11 | 1019.4 |
| 20260502004021 | 65 | 82 | 3.5 | 4.3 | 0.00 | 0.00 | 0.00 | 13 | 1019.5 |
| 20260502003519 | 65 | 78 | 3.5 | 4.3 | 0.00 | 0.00 | 0.00 | 15 | 1019.6 |
| 20260502003015 | 66 | 10 | 1.7 | 4.3 | 0.00 | 0.00 | 0.00 | 16 | 1019.4 |
| 20260502002512 | 66 | 110 | 3.5 | 5.2 | 0.00 | 0.00 | 0.00 | 11 | 1019.6 |
| 20260502002010 | 66 | 85 | 2.6 | 4.3 | 0.00 | 0.00 | 0.00 | 12 | 1019.5 |
| 20260502001507 | 66 | 79 | 1.7 | 4.3 | 0.00 | 0.00 | 0.00 | 9 | 1019.5 |
| 20260502001004 | 66 | 155 | 1.7 | 4.3 | 0.00 | 0.00 | 0.00 | 12 | 1019.4 |
| 20260502000503 | 66 | 136 | 2.6 | 4.3 | 0.00 | 0.00 | 0.00 | 11 | 1019.5 |
| 20260501235959 | 67 | 12 | 0.0 | 2.6 | 0.00 | 0.00 | 0.00 | 10 | 1019.7 |
| 20260501235454 | 67 | 5 | 4.3 | 6.1 | 0.00 | 0.00 | 0.00 | 11 | 1019.4 |
| 20260501234950 | 68 | 60 | 3.5 | 3.5 | 0.00 | 0.00 | 0.00 | 13 | 1019.6 |
| 20260501234447 | 68 | 36 | 3.5 | 3.5 | 0.00 | 0.00 | 0.00 | 12 | 1019.7 |
| 20260501233945 | 68 | 65 | 6.1 | 6.1 | 0.00 | 0.00 | 0.00 | 14 | 1019.8 |
| 20260501233443 | 68 | 70 | 1.7 | 4.3 | 0.00 | 0.00 | 0.00 | 15 | 1019.6 |
| 20260501232938 | 68 | 39 | 1.7 | 3.5 | 0.00 | 0.00 | 0.00 | 9 | 1019.6 |
| 20260501232435 | 68 | 38 | 2.6 | 7.0 | 0.00 | 0.00 | 0.00 | 9 | 1019.7 |
| 20260501231932 | 68 | 358 | 0.9 | 3.5 | 0.00 | 0.00 | 0.00 | 11 | 1019.8 |
| 20260501231431 | 68 | 328 | 1.7 | 5.2 | 0.00 | 0.00 | 0.00 | 13 | 1019.8 |
| 20260501230929 | 68 | 163 | 3.5 | 5.2 | 0.00 | 0.00 | 0.00 | 11 | 1020.0 |
| 20260501230427 | 68 | 134 | 1.7 | 4.3 | 0.00 | 0.00 | 0.00 | 12 | 1019.9 |
| 20260501225925 | 68 | 106 | 3.5 | 5.2 | 0.00 | 0.00 | 0.00 | 12 | 1019.9 |
| 20260501225422 | 67 | 32 | 4.3 | 7.8 | 0.00 | 0.00 | 0.00 | 11 | 1019.8 |
| 20260501224917 | 70 | 344 | 1.7 | 3.5 | 0.00 | 0.00 | 0.00 | 11 | 1020.2 |
| 20260501224415 | 69 | 335 | 0.9 | 2.6 | 0.00 | 0.00 | 0.00 | 17 | 1020.3 |
| 20260501223912 | 69 | 181 | 1.7 | 3.5 | 0.00 | 0.00 | 0.00 | 10 | 1020.0 |
| 20260501223408 | 68 | 27 | 0.0 | 4.3 | 0.00 | 0.00 | 0.00 | 11 | 1020.2 |
| 20260501222904 | 69 | 187 | 1.7 | 3.5 | 0.00 | 0.00 | 0.00 | 10 | 1020.3 |
| 20260501222402 | 68 | 105 | 1.7 | 3.5 | 0.00 | 0.00 | 0.00 | 12 | 1020.3 |
| 20260501221858 | 68 | 184 | 2.6 | 5.2 | 0.00 | 0.00 | 0.00 | 11 | 1020.4 |
| 20260501221355 | 67 | 97 | 1.7 | 3.5 | 0.00 | 0.00 | 0.00 | 17 | 1020.6 |
| 20260501220853 | 66 | 79 | 4.3 | 7.8 | 0.00 | 0.00 | 0.00 | 15 | 1020.6 |
| 20260501220350 | 66 | 116 | 4.3 | 6.1 | 0.00 | 0.00 | 0.00 | 15 | 1020.7 |
| 20260501215846 | 67 | 190 | 0.9 | 7.0 | 0.00 | 0.00 | 0.00 | 14 | 1020.7 |
| 20260501215343 | 66 | 25 | 0.0 | 2.6 | 0.00 | 0.00 | 0.00 | 14 | 1020.8 |
| 20260501214838 | 66 | 123 | 3.5 | 5.2 | 0.00 | 0.00 | 0.00 | 14 | 1020.7 |
| 20260501214334 | 66 | 165 | 4.3 | 5.2 | 0.00 | 0.00 | 0.00 | 17 | 1020.7 |
| 20260501213830 | 66 | 102 | 4.3 | 6.1 | 0.00 | 0.00 | 0.00 | 19 | 1021.1 |
| 20260501213327 | 66 | 127 | 2.6 | 5.2 | 0.00 | 0.00 | 0.00 | 14 | 1021.0 |
| 20260501212822 | 66 | 117 | 3.5 | 4.3 | 0.00 | 0.00 | 0.00 | 16 | 1021.1 |
| 20260501212319 | 65 | 51 | 4.3 | 6.1 | 0.00 | 0.00 | 0.00 | 17 | 1021.1 |
| 20260501211816 | 65 | 81 | 5.2 | 7.8 | 0.00 | 0.00 | 0.00 | 14 | 1021.2 |
| 20260501211314 | 65 | 339 | 0.0 | 4.3 | 0.00 | 0.00 | 0.00 | 14 | 1021.2 |
| 20260501210811 | 66 | 349 | 1.7 | 6.1 | 0.00 | 0.00 | 0.00 | 15 | 1021.1 |
| 20260501210308 | 65 | 7 | 1.7 | 3.5 | 0.00 | 0.00 | 0.00 | 16 | 1021.2 |
| 20260501205804 | 66 | 189 | 5.2 | 5.2 | 0.00 | 0.00 | 0.00 | 15 | 1021.3 |
| 20260501205301 | 65 | 349 | 0.9 | 3.5 | 0.00 | 0.00 | 0.00 | 14 | 1021.2 |
| 20260501204757 | 64 | 3 | 0.9 | 2.6 | 0.00 | 0.00 | 0.00 | 17 | 1021.4 |
| 20260501204254 | 64 | 16 | 3.5 | 7.0 | 0.00 | 0.00 | 0.00 | 14 | 1021.5 |
| 20260501203750 | 64 | 332 | 3.5 | 7.0 | 0.00 | 0.00 | 0.00 | 17 | 1021.4 |
| 20260501203248 | 64 | 159 | 1.7 | 3.5 | 0.00 | 0.00 | 0.00 | 22 | 1021.5 |
| 20260501202745 | 64 | 79 | 1.7 | 2.6 | 0.00 | 0.00 | 0.00 | 19 | 1021.6 |
| 20260501202241 | 64 | 327 | 2.6 | 2.6 | 0.00 | 0.00 | 0.00 | 21 | 1021.6 |
| 20260501201738 | 63 | 330 | 4.3 | 5.2 | 0.00 | 0.00 | 0.00 | 16 | 1021.9 |
| 20260501201235 | 63 | 45 | 5.2 | 6.1 | 0.00 | 0.00 | 0.00 | 18 | 1021.6 |
| 20260501200732 | 63 | 318 | 3.5 | 4.3 | 0.00 | 0.00 | 0.00 | 17 | 1021.6 |